Flight Track Log - Related Links

Times and Time Zones

All times are in EDT time to prevent confusion due to time zone crossing. See the SWA2353 flight status page for this flight to view local times or setup timezone preferences in your user account.


Time Position Orientation Groundspeed Altitude Reporting Facility
EDT Latitude Longitude Course Direction KTS MPH feet Rate Location/Type
Mon 08:40:07 AM 39.8000 -104.6667 226° Southwest 209 241 7,100  Level Denver TRACON
Mon 08:41:01 AM 39.7500 -104.7333 226° Southwest 286 329 8,400 1,500 Climbing Denver TRACON
Mon 08:42:07 AM 39.7500 -104.8500 270° West 312 359 10,100 1,286 Climbing Denver TRACON
Mon 08:43:07 AM 39.7667 -104.9833 279° West 357 411 11,100 2,050 Climbing Denver TRACON
Mon 08:44:07 AM 39.7333 -105.1000 250° West 360 414 14,200 2,900 Climbing Denver TRACON
Mon 08:45:07 AM 39.6833 -105.2333 244° Southwest 381 438 16,900 2,500 Climbing Denver TRACON
Mon 08:46:07 AM 39.6500 -105.3500 250° West 395 455 19,200 2,165 Climbing Denver TRACON
Mon 08:47:20 AM 39.5944 -105.4936 243° Southwest 398 458 21,700 2,149 Climbing Denver Center
Mon 08:48:21 AM 39.5506 -105.6283 247° West 401 461 24,000 2,115 Climbing Denver Center
Mon 08:49:22 AM 39.5022 -105.8003 250° West 417 480 26,000 1,033 Climbing Denver Center
Mon 08:50:23 AM 39.4625 -105.9447 250° West 424 488 26,100 934 Climbing Denver Center
Mon 08:51:24 AM 39.4231 -106.0867 250° West 424 488 27,900 1,672 Climbing Denver Center
Mon 08:52:25 AM 39.3836 -106.2267 250° West 427 491 29,500 1,869 Climbing Denver Center
Mon 08:53:26 AM 39.3444 -106.3628 250° West 426 490 31,700 2,311 Climbing Denver Center
Mon 08:54:27 AM 39.3006 -106.5142 250° West 406 467 34,200 2,016 Climbing Denver Center
Mon 08:55:28 AM 39.2639 -106.6397 249° West 394 453 35,800 1,475 Climbing Denver Center
Mon 08:56:29 AM 39.2119 -106.7556 240° Southwest 391 450 37,200 1,082 Climbing Denver Center
Mon 08:57:30 AM 39.1478 -106.8828 237° Southwest 384 442 38,000 393 Climbing Denver Center
Mon 08:58:31 AM 39.0908 -106.9911 236° Southwest 384 442 38,000  Level Denver Center
Mon 08:59:32 AM 39.0261 -107.1181 237° Southwest 381 438 38,000  Level Denver Center
Mon 09:00:33 AM 38.9692 -107.2275 236° Southwest 381 438 38,000  Level Denver Center
Mon 09:01:34 AM 38.9125 -107.3383 237° Southwest 382 440 38,000  Level Denver Center
Mon 09:02:35 AM 38.8475 -107.4639 236° Southwest 378 435 38,000  Level Denver Center
Mon 09:03:36 AM 38.7906 -107.5725 236° Southwest 379 436 38,000  Level Denver Center
Mon 09:04:37 AM 38.7319 -107.6825 236° Southwest 385 443 38,000  Level Denver Center
Mon 09:05:38 AM 38.6650 -107.8108 236° Southwest 385 443 38,000  Level Denver Center
Mon 09:06:40 AM 38.6072 -107.9197 236° Southwest 385 443 38,000  Level Denver Center
Mon 09:07:41 AM 38.5489 -108.0303 236° Southwest 386 444 38,000  Level Denver Center
Mon 09:08:42 AM 38.4822 -108.1564 236° Southwest 386 444 38,000  Level Denver Center
Mon 09:09:43 AM 38.4250 -108.2631 236° Southwest 384 442 38,000  Level Denver Center
Mon 09:10:44 AM 38.3675 -108.3700 236° Southwest 383 441 38,000  Level Denver Center
Mon 09:11:45 AM 38.3019 -108.4936 236° Southwest 379 436 38,000  Level Denver Center
Mon 09:12:46 AM 38.2442 -108.6028 236° Southwest 382 440 38,000  Level Denver Center
Mon 09:13:47 AM 38.1856 -108.7092 235° Southwest 383 441 38,000  Level Denver Center
Mon 09:14:48 AM 38.1172 -108.8336 235° Southwest 383 441 38,000  Level Denver Center
Mon 09:15:49 AM 38.0594 -108.9400 235° Southwest 383 441 38,000  Level Denver Center
Mon 09:16:50 AM 37.9983 -109.0489 235° Southwest 379 436 38,000  Level Denver Center
Mon 09:17:51 AM 37.9303 -109.1708 235° Southwest 379 436 38,000  Level Denver Center
Mon 09:18:52 AM 37.8719 -109.2769 235° Southwest 380 437 38,000  Level Denver Center
Mon 09:19:54 AM 37.8128 -109.3839 235° Southwest 385 443 38,000  Level Denver Center
Mon 09:20:55 AM 37.7458 -109.5064 235° Southwest 382 440 38,000 787 Level Denver Center
Mon 09:21:56 AM 37.6892 -109.6089 235° Southwest 375 432 39,600 984 Climbing Denver Center
Mon 09:22:57 AM 37.6242 -109.7233 234° Southwest 364 419 40,000 197 Climbing Denver Center
Mon 09:23:58 AM 37.5672 -109.8244 235° Southwest 365 420 40,000  Level Denver Center
Mon 09:25:00 AM 37.5106 -109.9256 235° Southwest 367 422 40,000  Level Denver Center
Mon 09:26:01 AM 37.4439 -110.0450 235° Southwest 372 428 40,000  Level Denver Center
Mon 09:27:02 AM 37.3850 -110.1469 234° Southwest 374 430 40,000  Level Denver Center
Mon 09:28:03 AM 37.3183 -110.2644 235° Southwest 374 430 40,000  Level Denver Center
Mon 09:29:05 AM 37.2569 -110.3717 234° Southwest 376 433 40,000  Level Denver Center
Mon 09:30:06 AM 37.1964 -110.4781 234° Southwest 377 434 40,000  Level Denver Center
Mon 09:31:07 AM 37.1342 -110.5861 234° Southwest 378 435 40,000  Level Denver Center
Mon 09:32:09 AM 37.0728 -110.6919 234° Southwest 379 436 40,000  Level Denver Center
Mon 09:33:10 AM 37.0122 -110.7992 235° Southwest 378 435 40,000  Level Denver Center
Mon 09:34:11 AM 36.9497 -110.9047 233° Southwest 378 435 40,000  Level Denver Center
Mon 09:35:13 AM 36.8889 -111.0083 234° Southwest 376 433 40,000  Level Denver Center
Mon 09:36:14 AM 36.8292 -111.1125 234° Southwest 373 429 40,000  Level Denver Center
Mon 09:37:15 AM 36.7697 -111.2158 234° Southwest 370 426 40,000  Level Denver Center
Mon 09:38:17 AM 36.6964 -111.3422 234° Southwest 370 426 40,000  Level Denver Center
Mon 09:39:18 AM 36.6314 -111.4483 233° Southwest 375 432 40,000  Level Denver Center
Mon 09:40:20 AM 36.5706 -111.5528 234° Southwest 376 433 40,000  Level Denver Center
Mon 09:41:21 AM 36.5064 -111.6583 233° Southwest 376 433 40,000  Level Denver Center
Mon 09:42:23 AM 36.4444 -111.7647 234° Southwest 378 435 40,000 -244 Level Denver Center
Mon 09:43:24 AM 36.3814 -111.8703 233° Southwest 378 435 39,500 -732 Descending Denver Center
Mon 09:44:26 AM 36.3175 -111.9758 233° Southwest 378 435 38,500 -732 Descending Denver Center
Mon 09:45:27 AM 36.2542 -112.0814 233° Southwest 379 436 38,000 -244 Descending Denver Center
Mon 09:46:29 AM 36.1906 -112.1875 233° Southwest 379 436 38,000  Level Denver Center
Mon 09:47:30 AM 36.1136 -112.3142 233° Southwest 381 438 38,000  Level Denver Center
Mon 09:48:54 AM 36.0231 -112.4644 233° Southwest 384 442 38,000  Level Los Angeles Center
Mon 09:49:55 AM 35.9586 -112.5700 233° Southwest 384 442 38,000  Level Los Angeles Center
Mon 09:50:57 AM 35.8969 -112.6703 233° Southwest 386 444 38,000  Level Los Angeles Center
Mon 09:51:59 AM 35.8331 -112.7747 233° Southwest 385 443 38,000  Level Los Angeles Center
Mon 09:53:01 AM 35.7697 -112.8789 233° Southwest 385 443 38,000  Level Los Angeles Center
Mon 09:54:02 AM 35.7064 -112.9831 233° Southwest 384 442 38,000  Level Los Angeles Center
Mon 09:55:04 AM 35.6303 -113.1044 232° Southwest 383 441 38,000  Level Los Angeles Center
Mon 09:56:06 AM 35.5656 -113.2086 233° Southwest 379 436 38,000  Level Los Angeles Center
Mon 09:57:08 AM 35.5019 -113.3147 234° Southwest 386 444 38,000  Level Los Angeles Center
Mon 09:58:09 AM 35.4358 -113.4194 232° Southwest 390 449 38,000  Level Los Angeles Center
Mon 09:59:11 AM 35.3706 -113.5242 233° Southwest 391 450 38,000  Level Los Angeles Center
Mon 10:00:13 AM 35.2897 -113.6511 232° Southwest 393 452 38,000  Level Los Angeles Center
Mon 10:01:15 AM 35.2231 -113.7561 232° Southwest 393 452 38,000  Level Los Angeles Center
Mon 10:02:16 AM 35.1564 -113.8622 232° Southwest 393 452 38,000  Level Los Angeles Center
Mon 10:03:18 AM 35.0861 -113.9722 232° Southwest 390 449 38,000  Level Los Angeles Center
Mon 10:04:20 AM 35.0194 -114.0761 232° Southwest 387 445 38,000 -435 Level Los Angeles Center
Mon 10:05:22 AM 34.9522 -114.1822 232° Southwest 389 448 37,100 -1,742 Descending Los Angeles Center
Mon 10:06:24 AM 34.8861 -114.2856 232° Southwest 389 448 34,400 -2,634 Descending Los Angeles Center
Mon 10:07:25 AM 34.8189 -114.3900 232° Southwest 389 448 31,700 -2,146 Descending Los Angeles Center
Mon 10:08:27 AM 34.7353 -114.5086 229° Southwest 388 447 30,000 -823 Descending Los Angeles Center
Mon 10:09:29 AM 34.6553 -114.6006 223° Southwest 389 448 30,000  Level Los Angeles Center
Mon 10:10:31 AM 34.5808 -114.6831 222° Southwest 392 451 30,000  Level Los Angeles Center
Mon 10:11:33 AM 34.5003 -114.7769 224° Southwest 396 456 30,000  Level Los Angeles Center
Mon 10:12:35 AM 34.4189 -114.8681 223° Southwest 399 459 30,000  Level Los Angeles Center
Mon 10:13:37 AM 34.3208 -114.9781 223° Southwest 399 459 30,000 -194 Level Los Angeles Center
Mon 10:14:39 AM 34.2392 -115.0711 223° Southwest 402 463 29,600 -774 Descending Los Angeles Center
Mon 10:15:41 AM 34.1578 -115.1631 223° Southwest 402 463 28,400 -1,548 Descending Los Angeles Center
Mon 10:16:43 AM 34.0750 -115.2569 223° Southwest 403 464 26,400 -1,935 Descending Los Angeles Center
Mon 10:17:45 AM 33.9908 -115.3508 223° Southwest 408 470 24,400 -1,161 Descending Los Angeles Center
Mon 10:18:47 AM 33.9078 -115.4431 223° Southwest 408 470 24,000 -194 Descending Los Angeles Center
Mon 10:19:49 AM 33.8092 -115.5514 222° Southwest 404 465 24,000  Level Los Angeles Center
Mon 10:20:51 AM 33.7278 -115.6425 223° Southwest 403 464 24,000  Level Los Angeles Center
Mon 10:21:53 AM 33.6450 -115.7336 223° Southwest 403 464 24,000  Level Los Angeles Center
Mon 10:22:55 AM 33.5761 -115.8383 232° Southwest 403 464 24,000  Level Los Angeles Center
Mon 10:23:57 AM 33.5075 -115.9403 231° Southwest 395 455 24,000 -290 Level Los Angeles Center
Mon 10:24:59 AM 33.4267 -116.0211 220° Southwest 384 442 23,400 -1,500 Descending Los Angeles Center
Mon 10:26:01 AM 33.3375 -116.1106 220° Southwest 354 407 20,900 -2,177 Descending Los Angeles Center
Mon 10:27:03 AM 33.2650 -116.1844 220° Southwest 347 399 18,900 -1,839 Descending Los Angeles Center
Mon 10:28:05 AM 33.1953 -116.2542 220° Southwest 333 383 17,100 -1,839 Descending Los Angeles Center
Mon 10:29:07 AM 33.1261 -116.3239 220° Southwest 331 381 15,100 -1,645 Descending Los Angeles Center
Mon 10:30:09 AM 33.0456 -116.4044 220° Southwest 331 381 13,700 -1,210 Descending Los Angeles Center
Mon 10:31:11 AM 32.9708 -116.4633 213° Southwest 326 375 12,600 -1,210 Descending Los Angeles Center
Mon 10:32:13 AM 32.8919 -116.5092 206° Southwest 318 366 11,200 -1,258 Descending Los Angeles Center
Mon 10:33:15 AM 32.8272 -116.5675 217° Southwest 303 349 10,000 -1,113 Descending Los Angeles Center
Mon 10:34:17 AM 32.7889 -116.6456 240° Southwest 284 327 8,900 -1,306 Descending Los Angeles Center
Mon 10:35:19 AM 32.7458 -116.7358 240° Southwest 268 308 7,300 -1,161 Descending Los Angeles Center
Mon 10:36:21 AM 32.7125 -116.8061 241° Southwest 254 292 6,500 -774 Descending Los Angeles Center
Mon 10:37:23 AM 32.6897 -116.8742 248° West 228 262 5,700 -774 Descending Los Angeles Center
Mon 10:38:25 AM 32.6733 -116.9311 251° West 196 226 4,900 -919 Descending Los Angeles Center
Mon 10:39:27 AM 32.6850 -116.9878 284° West 186 214 3,800 -1,065 Descending Los Angeles Center
Mon 10:40:29 AM 32.6983 -117.0450 285° West 185 213 2,700 -1,113 Descending Los Angeles Center
Mon 10:41:31 AM 32.7128 -117.1033 286° West 161 185 1,500 -968 Descending Los Angeles Center
Mon 10:42:33 AM 32.7222 -117.1467 285° West 144 166 700 -532 Descending Los Angeles Center
Mon 10:43:35 AM 32.7333 -117.1856 289° West 141 162 400 -290 Descending Los Angeles Center
Mon 10:45:00 AM 32.7333 -117.1833 281° West  Level FlightAware Approximate

Login

Don't have an account? Register now (free) for customized features, flight alerts, and more!